createdAt,value
2018-12-11T00:01:46.596Z,98.70
2018-12-11T00:04:53.450Z,98.74
2018-12-11T00:08:00.129Z,98.83
2018-12-11T00:11:19.919Z,98.49
2018-12-11T00:14:27.017Z,98.98
2018-12-11T00:17:34.321Z,98.70
2018-12-11T00:20:40.998Z,99.00
2018-12-11T00:23:59.901Z,98.26
2018-12-11T00:27:06.684Z,98.12
2018-12-11T00:30:13.865Z,98.81
2018-12-11T00:33:20.643Z,98.39
2018-12-11T00:36:39.704Z,98.25
2018-12-11T00:39:46.472Z,98.47
2018-12-11T00:42:53.242Z,98.52
2018-12-11T00:46:12.393Z,98.60
2018-12-11T00:49:19.114Z,98.53
2018-12-11T00:52:26.054Z,98.48
2018-12-11T00:55:41.973Z,98.43
2018-12-11T00:58:51.594Z,98.55
2018-12-11T01:01:58.633Z,98.44
2018-12-11T01:05:05.809Z,98.21
2018-12-11T01:08:25.713Z,98.24
2018-12-11T01:11:32.502Z,98.42
2018-12-11T01:14:51.629Z,98.42
2018-12-11T01:17:58.308Z,98.45
2018-12-11T01:21:16.818Z,98.12
2018-12-11T01:24:23.578Z,98.08
2018-12-11T01:27:30.337Z,98.37
2018-12-11T01:30:51.915Z,98.33
2018-12-11T01:33:58.583Z,98.35
2018-12-11T01:37:05.255Z,98.42
2018-12-11T01:40:24.161Z,98.18
2018-12-11T01:43:30.841Z,98.15
2018-12-11T01:46:38.407Z,98.33
2018-12-11T01:49:45.450Z,98.11
2018-12-11T01:52:52.645Z,98.21
2018-12-11T01:55:58.630Z,97.87
2018-12-11T01:59:05.522Z,97.96
2018-12-11T02:02:12.190Z,97.90
2018-12-11T02:05:18.754Z,97.78
2018-12-11T02:08:25.524Z,97.82
2018-12-11T02:11:32.434Z,97.78
2018-12-11T02:14:39.634Z,97.59
2018-12-11T02:17:58.570Z,97.87
2018-12-11T02:21:05.370Z,98.27
2018-12-11T02:24:12.052Z,98.17
2018-12-11T02:27:31.205Z,98.70
2018-12-11T02:30:38.087Z,98.60
2018-12-11T02:33:45.091Z,98.62
2018-12-11T02:36:52.182Z,98.44
2018-12-11T02:40:13.093Z,98.83
2018-12-11T02:43:19.767Z,98.57
2018-12-11T02:46:26.671Z,98.92
2018-12-11T02:49:45.753Z,98.83
2018-12-11T02:52:52.534Z,99.09
2018-12-11T02:55:59.329Z,99.02
2018-12-11T02:59:18.442Z,98.87
2018-12-11T03:02:25.209Z,99.52
2018-12-11T03:05:31.885Z,99.17
2018-12-11T03:08:38.581Z,99.07
2018-12-11T03:11:45.254Z,99.04
2018-12-11T03:14:52.018Z,99.59
2018-12-11T03:18:11.148Z,99.25
2018-12-11T03:21:17.803Z,99.26
2018-12-11T03:24:24.914Z,99.59
2018-12-11T03:27:43.779Z,99.14
2018-12-11T03:30:51.199Z,99.25
2018-12-11T03:33:57.987Z,99.34
2018-12-11T03:37:04.751Z,98.95
2018-12-11T03:40:24.222Z,99.46
2018-12-11T03:43:31.008Z,99.04
2018-12-11T03:46:38.523Z,99.44
2018-12-11T03:49:45.404Z,99.56
2018-12-11T03:52:52.323Z,99.60
2018-12-11T03:55:59.334Z,99.26
2018-12-11T03:59:18.619Z,99.25
2018-12-11T04:02:25.441Z,99.10
2018-12-11T04:05:32.508Z,99.73
2018-12-11T04:08:39.394Z,99.45
2018-12-11T04:11:59.062Z,99.56
2018-12-11T04:15:18.291Z,99.62
2018-12-11T04:18:24.969Z,99.32
2018-12-11T04:21:32.035Z,99.48
2018-12-11T04:24:50.918Z,99.56
2018-12-11T04:27:57.693Z,99.16
2018-12-11T04:31:04.358Z,99.51
2018-12-11T04:34:11.018Z,99.38
2018-12-11T04:37:17.949Z,99.40
2018-12-11T04:40:24.719Z,99.54
2018-12-11T04:43:43.658Z,99.32
2018-12-11T04:46:51.839Z,99.41
2018-12-11T04:49:58.607Z,99.60
2018-12-11T04:53:05.266Z,99.49
2018-12-11T04:56:12.030Z,99.77
2018-12-11T04:59:18.785Z,99.42
2018-12-11T05:02:38.029Z,99.47
2018-12-11T05:05:44.816Z,99.34
2018-12-11T05:08:51.486Z,99.25
2018-12-11T05:12:11.141Z,99.49
2018-12-11T05:15:17.796Z,99.90
2018-12-11T05:18:24.798Z,99.84
2018-12-11T05:21:31.451Z,99.16
2018-12-11T05:24:50.644Z,99.40
2018-12-11T05:27:57.450Z,99.51
2018-12-11T05:31:04.638Z,99.63
2018-12-11T05:34:11.437Z,99.70
2018-12-11T05:37:30.477Z,99.59
2018-12-11T05:40:37.255Z,99.50
2018-12-11T05:43:44.234Z,99.37
2018-12-11T05:47:09.147Z,99.56
2018-12-11T05:50:15.907Z,99.66
2018-12-11T05:53:22.670Z,99.51
2018-12-11T05:56:44.580Z,99.54
2018-12-11T05:59:51.242Z,99.54
2018-12-11T06:02:57.902Z,99.40
2018-12-11T06:06:16.850Z,99.17
2018-12-11T06:09:23.617Z,99.64
2018-12-11T06:12:30.817Z,99.15
2018-12-11T06:15:37.590Z,99.26
2018-12-11T06:18:56.713Z,99.27
2018-12-11T06:22:03.414Z,99.65
2018-12-11T06:25:10.171Z,99.36
2018-12-11T06:28:16.845Z,99.68
2018-12-11T06:31:23.499Z,99.60
2018-12-11T06:34:30.257Z,99.31
2018-12-11T06:37:49.434Z,99.87
2018-12-11T06:40:56.190Z,99.38
2018-12-11T06:44:02.850Z,99.43
2018-12-11T06:47:22.114Z,98.87
2018-12-11T06:50:28.784Z,99.18
2018-12-11T06:53:35.793Z,99.06
2018-12-11T06:56:54.815Z,99.86
2018-12-11T07:00:01.470Z,99.45
2018-12-11T07:03:08.430Z,99.27
2018-12-11T07:06:15.499Z,99.80
2018-12-11T07:09:21.470Z,99.93
2018-12-11T07:12:28.213Z,99.64
2018-12-11T07:15:34.970Z,99.85
2018-12-11T07:18:56.707Z,99.47
2018-12-11T07:22:03.809Z,99.68
2018-12-11T07:25:10.047Z,99.74
2018-12-11T07:28:16.830Z,99.44
2018-12-11T07:31:23.614Z,99.45
2018-12-11T07:34:31.070Z,99.43
2018-12-11T07:37:38.154Z,99.45
2018-12-11T07:40:51.519Z,99.04
2018-12-11T07:43:58.285Z,99.21
2018-12-11T07:47:17.490Z,99.33
2018-12-11T07:50:24.362Z,99.34
2018-12-11T07:53:44.591Z,99.51
2018-12-11T07:56:50.529Z,99.87
2018-12-11T07:59:57.303Z,99.88
2018-12-11T08:03:04.391Z,99.94
2018-12-11T08:06:10.305Z,99.73
2018-12-11T08:09:17.098Z,100.00
2018-12-11T08:12:24.194Z,100.00
2018-12-11T08:15:30.859Z,99.93
2018-12-11T08:18:51.186Z,99.92
2018-12-11T08:21:57.958Z,99.91
2018-12-11T08:25:05.121Z,99.60
2018-12-11T08:28:11.783Z,99.62
2018-12-11T08:31:18.547Z,99.77
2018-12-11T08:34:25.343Z,99.70
2018-12-11T08:37:44.501Z,99.46
2018-12-11T08:40:51.175Z,99.89
2018-12-11T08:44:09.963Z,99.45
2018-12-11T08:47:16.755Z,99.65
2018-12-11T08:50:23.759Z,99.72
2018-12-11T08:53:30.667Z,99.37
2018-12-11T08:56:37.338Z,99.25
2018-12-11T08:59:44.047Z,99.15
2018-12-11T09:02:50.727Z,99.44
2018-12-11T09:06:15.467Z,99.23
2018-12-11T09:09:22.254Z,99.48
2018-12-11T09:12:29.139Z,99.73
2018-12-11T09:15:48.129Z,99.40
2018-12-11T09:18:55.421Z,99.53
2018-12-11T09:22:02.149Z,99.75
2018-12-11T09:25:09.153Z,99.48
2018-12-11T09:28:15.927Z,99.75
2018-12-11T09:31:22.731Z,99.52
2018-12-11T09:34:29.408Z,99.44
2018-12-11T09:37:36.100Z,99.24
2018-12-11T09:40:55.273Z,99.04
2018-12-11T09:44:01.951Z,99.20
2018-12-11T09:47:21.175Z,99.33
2018-12-11T09:50:28.354Z,98.92
2018-12-11T09:53:35.102Z,99.55
2018-12-11T09:56:41.775Z,99.43
2018-12-11T10:00:01.565Z,99.13
2018-12-11T10:03:21.073Z,99.20
2018-12-11T10:06:27.850Z,99.17
2018-12-11T10:09:34.871Z,99.18
2018-12-11T10:12:54.490Z,98.97
2018-12-11T10:16:13.626Z,99.12
2018-12-11T10:19:20.869Z,99.34
2018-12-11T10:22:27.877Z,98.89
2018-12-11T10:25:34.642Z,99.00
2018-12-11T10:28:41.415Z,99.28
2018-12-11T10:31:48.074Z,99.50
2018-12-11T10:34:54.975Z,98.96
2018-12-11T10:38:01.751Z,99.61
2018-12-11T10:41:20.862Z,99.44
2018-12-11T10:44:27.654Z,99.15
2018-12-11T10:47:34.334Z,99.06
2018-12-11T10:50:56.480Z,99.15
2018-12-11T10:54:03.162Z,99.16
2018-12-11T10:57:09.824Z,98.84
2018-12-11T11:00:34.459Z,99.08
2018-12-11T11:03:41.251Z,99.04
2018-12-11T11:06:48.028Z,99.09
2018-12-11T11:09:54.718Z,99.25
2018-12-11T11:13:13.882Z,99.02
2018-12-11T11:16:20.564Z,98.75
2018-12-11T11:19:27.662Z,98.96
2018-12-11T11:22:47.338Z,98.87
2018-12-11T11:26:07.198Z,98.61
2018-12-11T11:29:14.283Z,98.66
2018-12-11T11:32:20.936Z,98.98
2018-12-11T11:35:27.606Z,98.69
2018-12-11T11:38:46.662Z,98.65
2018-12-11T11:41:53.430Z,99.29
2018-12-11T11:45:00.186Z,99.24
2018-12-11T11:48:19.379Z,98.88
2018-12-11T11:51:26.249Z,99.46
2018-12-11T11:54:32.939Z,99.13
2018-12-11T11:57:52.081Z,99.31
2018-12-11T12:00:58.826Z,99.05
2018-12-11T12:04:05.486Z,99.10
2018-12-11T12:07:12.146Z,98.99
2018-12-11T12:10:19.470Z,98.75
2018-12-11T12:13:26.126Z,99.34
2018-12-11T12:16:32.800Z,99.11
2018-12-11T12:19:52.021Z,99.09
2018-12-11T12:22:58.873Z,98.99
2018-12-11T12:26:15.598Z,99.07
2018-12-11T12:29:22.563Z,98.64
2018-12-11T12:32:29.210Z,99.27
2018-12-11T12:35:48.268Z,98.86
2018-12-11T12:38:55.030Z,98.86
2018-12-11T12:42:01.802Z,98.56
2018-12-11T12:45:20.965Z,99.21
2018-12-11T12:48:27.626Z,99.23
2018-12-11T12:51:46.422Z,98.93
2018-12-11T12:54:53.178Z,98.66
2018-12-11T12:57:59.834Z,99.17
2018-12-11T13:01:19.125Z,98.87
2018-12-11T13:04:25.794Z,98.89
2018-12-11T13:07:32.758Z,98.75
2018-12-11T13:10:51.795Z,98.94
2018-12-11T13:13:59.229Z,99.24
2018-12-11T13:17:05.922Z,98.96
2018-12-11T13:20:12.693Z,99.00
2018-12-11T13:23:31.678Z,98.87
2018-12-11T13:26:38.355Z,98.75
2018-12-11T13:29:57.158Z,99.17
2018-12-11T13:33:04.260Z,98.59
2018-12-11T13:36:11.614Z,98.51
2018-12-11T13:39:18.374Z,98.88
2018-12-11T13:42:25.040Z,98.58
2018-12-11T13:45:31.719Z,99.09
2018-12-11T13:48:38.605Z,98.49
2018-12-11T13:51:45.822Z,98.50
2018-12-11T13:54:52.574Z,99.03
2018-12-11T13:58:17.018Z,98.35
2018-12-11T14:01:23.802Z,98.86
2018-12-11T14:04:30.591Z,98.78
2018-12-11T14:07:49.696Z,98.86
2018-12-11T14:10:56.462Z,98.81
2018-12-11T14:14:03.695Z,98.69
2018-12-11T14:17:10.451Z,98.78
2018-12-11T14:20:29.629Z,98.80
2018-12-11T14:23:37.698Z,99.12
2018-12-11T14:26:45.218Z,98.39
2018-12-11T14:29:51.986Z,98.74
2018-12-11T14:33:11.133Z,98.46
2018-12-11T14:36:17.902Z,98.81
2018-12-11T14:39:24.732Z,99.28
2018-12-11T14:42:43.842Z,98.96
2018-12-11T14:45:50.605Z,99.03
2018-12-11T14:48:57.362Z,98.61
2018-12-11T14:52:16.574Z,98.85
2018-12-11T14:55:23.582Z,99.04
2018-12-11T14:58:30.253Z,98.85
2018-12-11T15:01:49.229Z,98.94
2018-12-11T15:04:55.898Z,98.89
2018-12-11T15:08:14.759Z,98.74
2018-12-11T15:11:21.485Z,98.71
2018-12-11T15:14:28.269Z,98.74
2018-12-11T15:17:47.390Z,98.61
2018-12-11T15:20:54.043Z,98.65
2018-12-11T15:24:01.107Z,98.27
2018-12-11T15:27:20.089Z,98.65
2018-12-11T15:30:27.306Z,98.20
2018-12-11T15:33:33.961Z,98.36
2018-12-11T15:36:52.759Z,98.47
2018-12-11T15:39:59.402Z,98.19
2018-12-11T15:43:06.577Z,98.59
2018-12-11T15:46:20.068Z,98.54
2018-12-11T15:49:42.611Z,98.41
2018-12-11T15:52:52.355Z,98.32
2018-12-11T15:56:14.208Z,98.59
2018-12-11T15:59:20.878Z,98.70
2018-12-11T16:02:27.541Z,98.43
2018-12-11T16:05:48.897Z,97.99
2018-12-11T16:08:56.234Z,97.84
2018-12-11T16:12:15.533Z,98.35
2018-12-11T16:15:22.205Z,97.65
2018-12-11T16:18:41.038Z,97.78
2018-12-11T16:21:47.814Z,97.90
2018-12-11T16:24:54.890Z,98.11
2018-12-11T16:28:01.707Z,98.24
2018-12-11T16:31:20.914Z,98.03
2018-12-11T16:34:27.923Z,98.03
2018-12-11T16:37:35.339Z,97.95
2018-12-11T16:40:42.103Z,98.00
2018-12-11T16:43:49.010Z,97.92
2018-12-11T16:47:08.014Z,97.97
2018-12-11T16:50:14.705Z,97.96
2018-12-11T16:53:45.000Z,97.74
2018-12-11T16:56:56.929Z,97.64
2018-12-11T17:00:14.252Z,97.81
2018-12-11T17:03:21.450Z,97.81
2018-12-11T17:06:40.918Z,97.67
2018-12-11T17:09:47.895Z,97.58
2018-12-11T17:13:04.366Z,97.52
2018-12-11T17:16:26.714Z,97.30
2018-12-11T17:19:39.403Z,97.74
2018-12-11T17:22:46.843Z,97.59
2018-12-11T17:26:06.278Z,97.84
2018-12-11T17:29:13.141Z,97.20
2018-12-11T17:32:19.946Z,98.20
2018-12-11T17:35:26.757Z,98.09
2018-12-11T17:38:33.650Z,98.19
2018-12-11T17:41:40.404Z,98.28
2018-12-11T17:44:47.065Z,98.40
2018-12-11T17:47:53.839Z,98.50
2018-12-11T17:51:13.739Z,99.01
2018-12-11T17:54:36.050Z,98.71
2018-12-11T17:57:42.717Z,98.74
2018-12-11T18:01:01.830Z,98.76
2018-12-11T18:04:08.678Z,98.67
2018-12-11T18:07:15.443Z,98.34
2018-12-11T18:10:22.205Z,98.82
2018-12-11T18:13:41.410Z,99.48
2018-12-11T18:16:48.486Z,99.15
2018-12-11T18:19:55.146Z,99.22
2018-12-11T18:23:02.611Z,98.94
2018-12-11T18:26:09.495Z,99.06
2018-12-11T18:29:25.018Z,98.86
2018-12-11T18:32:31.663Z,98.74
2018-12-11T18:35:50.466Z,98.58
2018-12-11T18:38:57.151Z,98.62
2018-12-11T18:42:16.058Z,98.49
2018-12-11T18:45:23.145Z,98.48
2018-12-11T18:48:29.817Z,98.70
2018-12-11T18:51:48.713Z,98.80
2018-12-11T18:54:55.491Z,98.48
2018-12-11T18:58:02.302Z,98.56
2018-12-11T19:01:21.410Z,98.32
2018-12-11T19:04:28.190Z,98.49
2018-12-11T19:07:35.047Z,98.92
2018-12-11T19:10:54.105Z,98.60
2018-12-11T19:14:01.081Z,98.84
2018-12-11T19:17:08.171Z,98.97
2018-12-11T19:20:15.098Z,98.99
2018-12-11T19:23:42.989Z,99.09
2018-12-11T19:27:01.846Z,99.21
2018-12-11T19:30:08.976Z,98.91
2018-12-11T19:33:16.072Z,98.33
2018-12-11T19:36:22.718Z,98.14
2018-12-11T19:39:41.762Z,98.23
2018-12-11T19:42:48.733Z,98.38
2018-12-11T19:45:55.510Z,98.38
2018-12-11T19:49:14.481Z,98.02
2018-12-11T19:52:21.145Z,98.40
2018-12-11T19:55:28.431Z,97.88
2018-12-11T19:58:35.919Z,98.04
2018-12-11T20:01:42.678Z,98.07
2018-12-11T20:05:00.090Z,97.77
2018-12-11T20:08:07.252Z,98.09
2018-12-11T20:11:14.694Z,98.53
2018-12-11T20:14:21.644Z,98.63
2018-12-11T20:17:28.399Z,98.71
2018-12-11T20:20:35.146Z,98.06
2018-12-11T20:23:41.793Z,98.26
2018-12-11T20:26:48.556Z,98.80
2018-12-11T20:29:55.463Z,98.93
2018-12-11T20:33:02.395Z,98.84
2018-12-11T20:36:21.585Z,98.27
2018-12-11T20:39:28.650Z,98.58
2018-12-11T20:42:35.401Z,98.66
2018-12-11T20:45:42.156Z,99.07
2018-12-11T20:48:49.233Z,99.14
2018-12-11T20:51:55.938Z,98.88
2018-12-11T20:55:02.714Z,98.79
2018-12-11T20:58:09.669Z,98.66
2018-12-11T21:01:28.738Z,98.60
2018-12-11T21:04:35.403Z,98.66
2018-12-11T21:08:00.244Z,98.45
2018-12-11T21:11:07.010Z,98.38
2018-12-11T21:14:14.036Z,98.47
2018-12-11T21:17:20.830Z,98.71
2018-12-11T21:20:40.146Z,98.56
2018-12-11T21:23:46.822Z,98.46
2018-12-11T21:26:54.231Z,99.12
2018-12-11T21:30:01.003Z,99.01
2018-12-11T21:33:07.995Z,98.83
2018-12-11T21:36:27.398Z,99.31
2018-12-11T21:39:34.184Z,98.94
2018-12-11T21:42:40.955Z,98.89
2018-12-11T21:45:48.063Z,98.76
2018-12-11T21:49:07.246Z,98.78
2018-12-11T21:52:13.902Z,98.90
2018-12-11T21:55:21.099Z,99.06
2018-12-11T21:58:27.202Z,99.11
2018-12-11T22:01:33.994Z,99.67
2018-12-11T22:04:40.854Z,99.45
2018-12-11T22:07:59.927Z,99.30
2018-12-11T22:11:07.071Z,99.59
2018-12-11T22:14:13.942Z,99.35
2018-12-11T22:17:20.613Z,99.63
2018-12-11T22:20:36.395Z,99.46
2018-12-11T22:23:43.046Z,99.16
2018-12-11T22:26:49.779Z,99.57
2018-12-11T22:30:09.549Z,99.54
2018-12-11T22:33:29.335Z,99.28
2018-12-11T22:36:36.088Z,99.63
2018-12-11T22:39:42.102Z,99.47
2018-12-11T22:42:48.745Z,99.73
2018-12-11T22:45:55.827Z,99.52
2018-12-11T22:49:02.853Z,99.30
2018-12-11T22:52:09.748Z,99.27
2018-12-11T22:55:28.916Z,98.89
2018-12-11T22:58:35.591Z,98.71
2018-12-11T23:01:54.646Z,99.05
2018-12-11T23:05:01.332Z,99.16
2018-12-11T23:08:08.061Z,99.21
2018-12-11T23:11:27.043Z,99.20
2018-12-11T23:14:33.798Z,99.57
2018-12-11T23:17:40.553Z,99.19
2018-12-11T23:21:00.142Z,99.72
2018-12-11T23:24:19.602Z,99.89
2018-12-11T23:27:26.286Z,99.83
2018-12-11T23:30:33.224Z,99.45
2018-12-11T23:33:57.827Z,99.65
2018-12-11T23:37:05.001Z,99.64
2018-12-11T23:40:12.254Z,99.67
2018-12-11T23:43:18.908Z,99.26
2018-12-11T23:46:25.661Z,99.23
2018-12-11T23:49:44.953Z,99.53
2018-12-11T23:52:51.615Z,98.90
2018-12-11T23:55:58.576Z,99.19
2018-12-11T23:59:17.595Z,98.94
